ANA360 YSSY-RJTT
Flight info
| Callsign | ANA360 |
|---|---|
| Flight time | N/A |
| Altitude | 32000 |
| Route | GROOK1 RIC H530 LASUD Q238 DUPUG Q141 OVRON B462 PY B586 PIKOK 05N145E 10N144E 15N143E 20N142E 25N141E UKATA B586 CADDY T871 TOPIT Y875 AROSA AROS1N |
| Aircraft | A346/H-VGDW/C |
Departure
| Time | 2026-05-06 03:46 |
|---|---|
| Airport | Sydney Kingsford Smith International Airport (YSSY) |
Arrival
| Time | N/A |
|---|---|
| Airport | Tokyo Haneda International Airport (RJTT) |
| Time | Latitude | Longitude | Altitude | Speed | Heading |
|---|---|---|---|---|---|
| 2026-05-06 03:21 | -33.93479 | 151.16797 | 36 ft | 0 kts | 258° |
| 2026-05-06 03:35 | -33.93477 | 151.16806 | 37 ft | 2 kts | 258° |
| 2026-05-06 03:35 | -33.93474 | 151.16824 | 37 ft | 2 kts | 258° |
| 2026-05-06 03:35 | -33.93472 | 151.16843 | 37 ft | 2 kts | 271° |
| 2026-05-06 03:35 | -33.93474 | 151.16859 | 37 ft | 2 kts | 287° |
| 2026-05-06 03:36 | -33.93480 | 151.16876 | 36 ft | 2 kts | 300° |
| 2026-05-06 03:36 | -33.93488 | 151.16891 | 36 ft | 2 kts | 314° |
| 2026-05-06 03:36 | -33.93500 | 151.16904 | 36 ft | 2 kts | 328° |
| 2026-05-06 03:36 | -33.93513 | 151.16911 | 36 ft | 2 kts | 341° |
| 2026-05-06 03:37 | -33.93528 | 151.16916 | 36 ft | 1 kts | 355° |
| 2026-05-06 03:37 | -33.93534 | 151.16916 | 36 ft | 1 kts | 359° |
| 2026-05-06 03:39 | -33.93515 | 151.16916 | 35 ft | 5 kts | 358° |
| 2026-05-06 03:40 | -33.93457 | 151.16907 | 36 ft | 10 kts | 347° |
| 2026-05-06 03:40 | -33.93377 | 151.16887 | 36 ft | 11 kts | 353° |
| 2026-05-06 03:40 | -33.93207 | 151.16946 | 34 ft | 12 kts | 349° |
| 2026-05-06 03:41 | -33.93118 | 151.16923 | 34 ft | 12 kts | 348° |
| 2026-05-06 03:41 | -33.93055 | 151.16908 | 34 ft | 9 kts | 348° |
| 2026-05-06 03:41 | -33.92996 | 151.16928 | 34 ft | 10 kts | 53° |
| 2026-05-06 03:41 | -33.92976 | 151.16991 | 33 ft | 2 kts | 77° |
| 2026-05-06 03:43 | -33.92975 | 151.16998 | 33 ft | 3 kts | 77° |
| 2026-05-06 03:44 | -33.92962 | 151.17068 | 32 ft | 13 kts | 78° |
| 2026-05-06 03:44 | -33.92997 | 151.17169 | 34 ft | 13 kts | 149° |
| 2026-05-06 03:44 | -33.93071 | 151.17195 | 33 ft | 3 kts | 168° |
| 2026-05-06 03:44 | -33.93086 | 151.17200 | 33 ft | 15 kts | 168° |
| 2026-05-06 03:45 | -33.93410 | 151.17282 | 27 ft | 79 kts | 168° |
| 2026-05-06 03:45 | -33.94142 | 151.17471 | 24 ft | 132 kts | 168° |
| 2026-05-06 03:45 | -33.95194 | 151.17741 | 29 ft | 175 kts | 168° |
| 2026-05-06 03:45 | -33.96452 | 151.18059 | 305 ft | 186 kts | 168° |
| 2026-05-06 03:46 | -33.97730 | 151.18346 | 687 ft | 192 kts | 174° |
| 2026-05-06 03:46 | -33.99077 | 151.18288 | 1137 ft | 196 kts | 188° |
| 2026-05-06 03:46 | -34.00447 | 151.18008 | 1587 ft | 200 kts | 189° |
| 2026-05-06 03:46 | -34.01826 | 151.17703 | 1925 ft | 211 kts | 187° |
| 2026-05-06 03:47 | -34.03340 | 151.17670 | 2202 ft | 219 kts | 177° |
| 2026-05-06 03:47 | -34.04828 | 151.17250 | 2390 ft | 232 kts | 216° |
| 2026-05-06 03:47 | -34.05811 | 151.15691 | 2583 ft | 243 kts | 258° |
| 2026-05-06 03:47 | -34.05757 | 151.13640 | 2846 ft | 251 kts | 297° |
| 2026-05-06 03:48 | -34.04655 | 151.12028 | 3155 ft | 258 kts | 331° |
| 2026-05-06 03:48 | -34.03061 | 151.11024 | 3713 ft | 261 kts | 334° |
| 2026-05-06 03:48 | -34.01469 | 151.09959 | 4389 ft | 262 kts | 330° |
| 2026-05-06 03:48 | -33.99937 | 151.08809 | 5076 ft | 262 kts | 328° |
| 2026-05-06 03:49 | -33.98424 | 151.07584 | 5760 ft | 263 kts | 326° |
| 2026-05-06 03:49 | -33.96927 | 151.06313 | 6448 ft | 264 kts | 324° |
| 2026-05-06 03:49 | -33.95446 | 151.05017 | 7128 ft | 265 kts | 324° |
| 2026-05-06 03:49 | -33.93970 | 151.03703 | 7758 ft | 267 kts | 323° |
| 2026-05-06 03:50 | -33.92482 | 151.02367 | 8388 ft | 270 kts | 323° |
| 2026-05-06 03:50 | -33.90974 | 151.01004 | 9006 ft | 273 kts | 323° |
| 2026-05-06 03:50 | -33.89446 | 150.99620 | 9599 ft | 275 kts | 323° |
| 2026-05-06 03:50 | -33.87911 | 150.98227 | 10174 ft | 279 kts | 323° |
| 2026-05-06 03:51 | -33.86338 | 150.96800 | 10515 ft | 291 kts | 322° |
| 2026-05-06 03:51 | -33.84683 | 150.95296 | 10787 ft | 306 kts | 322° |
| 2026-05-06 03:51 | -33.82946 | 150.93718 | 11041 ft | 321 kts | 322° |
| 2026-05-06 03:51 | -33.81098 | 150.92041 | 11298 ft | 336 kts | 322° |
| 2026-05-06 03:52 | -33.79210 | 150.90328 | 11547 ft | 350 kts | 322° |
| 2026-05-06 03:52 | -33.77230 | 150.88531 | 11820 ft | 364 kts | 322° |
| 2026-05-06 03:52 | -33.75193 | 150.86687 | 12329 ft | 370 kts | 322° |
| 2026-05-06 03:52 | -33.73134 | 150.84822 | 12964 ft | 372 kts | 322° |
| 2026-05-06 03:53 | -33.71055 | 150.82941 | 13565 ft | 374 kts | 322° |
| 2026-05-06 03:53 | -33.68978 | 150.81061 | 14164 ft | 377 kts | 322° |
| 2026-05-06 03:53 | -33.66864 | 150.79147 | 14767 ft | 380 kts | 322° |
| 2026-05-06 03:53 | -33.64761 | 150.77245 | 15331 ft | 382 kts | 322° |
| 2026-05-06 03:54 | -33.62630 | 150.75317 | 15879 ft | 385 kts | 322° |
| 2026-05-06 03:54 | -33.60503 | 150.73395 | 16426 ft | 388 kts | 322° |
| 2026-05-06 03:54 | -33.58326 | 150.71429 | 16961 ft | 391 kts | 322° |
| 2026-05-06 03:54 | -33.56150 | 150.69466 | 17460 ft | 394 kts | 322° |
| 2026-05-06 03:55 | -33.53940 | 150.67471 | 17972 ft | 397 kts | 322° |
| 2026-05-06 03:55 | -33.51719 | 150.65469 | 18473 ft | 400 kts | 321° |
| 2026-05-06 03:55 | -33.49497 | 150.63464 | 18964 ft | 403 kts | 321° |
| 2026-05-06 03:55 | -33.47260 | 150.61449 | 19452 ft | 405 kts | 321° |
| 2026-05-06 03:56 | -33.44994 | 150.59410 | 19939 ft | 408 kts | 321° |
| 2026-05-06 03:56 | -33.42723 | 150.57369 | 20414 ft | 411 kts | 321° |
| 2026-05-06 03:56 | -33.40486 | 150.55254 | 20887 ft | 413 kts | 319° |
| 2026-05-06 03:56 | -33.38318 | 150.52965 | 21356 ft | 415 kts | 315° |
| 2026-05-06 03:57 | -33.36227 | 150.50572 | 21800 ft | 417 kts | 315° |
| 2026-05-06 03:57 | -33.34153 | 150.48187 | 22242 ft | 420 kts | 315° |
| 2026-05-06 03:57 | -33.32017 | 150.45732 | 22668 ft | 423 kts | 314° |
| 2026-05-06 03:57 | -33.29900 | 150.43297 | 23108 ft | 425 kts | 314° |
| 2026-05-06 03:58 | -33.27771 | 150.40849 | 23534 ft | 427 kts | 314° |
| 2026-05-06 03:58 | -33.25641 | 150.38402 | 23944 ft | 429 kts | 314° |
| 2026-05-06 03:58 | -33.23481 | 150.35922 | 24344 ft | 431 kts | 314° |
| 2026-05-06 03:58 | -33.21314 | 150.33435 | 24734 ft | 434 kts | 315° |
| 2026-05-06 03:59 | -33.19139 | 150.30943 | 25128 ft | 435 kts | 315° |
| 2026-05-06 03:59 | -33.16968 | 150.28455 | 25501 ft | 438 kts | 315° |
| 2026-05-06 03:59 | -33.14756 | 150.25923 | 25880 ft | 439 kts | 315° |
| 2026-05-06 03:59 | -33.12546 | 150.23393 | 26264 ft | 441 kts | 315° |
| 2026-05-06 04:00 | -33.10346 | 150.20879 | 26621 ft | 443 kts | 315° |
| 2026-05-06 04:00 | -33.08114 | 150.18327 | 26972 ft | 445 kts | 315° |
| 2026-05-06 04:00 | -33.05891 | 150.15787 | 27312 ft | 446 kts | 315° |
| 2026-05-06 04:00 | -33.03633 | 150.13209 | 27660 ft | 448 kts | 315° |
| 2026-05-06 04:01 | -33.01382 | 150.10641 | 27985 ft | 450 kts | 315° |
| 2026-05-06 04:01 | -32.99133 | 150.08072 | 28289 ft | 452 kts | 315° |